createdAt,value
2017-08-30T00:01:54.516Z,64.96
2017-08-30T00:04:22.067Z,64.97
2017-08-30T00:06:49.457Z,64.91
2017-08-30T00:09:16.846Z,64.67
2017-08-30T00:11:44.351Z,64.58
2017-08-30T00:14:11.750Z,65.04
2017-08-30T00:16:39.139Z,64.95
2017-08-30T00:19:06.691Z,65.25
2017-08-30T00:21:34.094Z,65.43
2017-08-30T00:24:01.487Z,65.48
2017-08-30T00:26:28.940Z,65.08
2017-08-30T00:28:56.333Z,65.89
2017-08-30T00:31:23.723Z,65.87
2017-08-30T00:33:51.271Z,66.20
2017-08-30T00:36:18.659Z,66.59
2017-08-30T00:38:46.054Z,66.63
2017-08-30T00:41:13.606Z,66.39
2017-08-30T00:43:40.999Z,66.26
2017-08-30T00:46:08.385Z,66.12
2017-08-30T00:48:35.839Z,66.16
2017-08-30T00:51:03.227Z,66.56
2017-08-30T00:53:30.622Z,66.80
2017-08-30T00:55:58.030Z,66.94
2017-08-30T00:58:25.418Z,66.34
2017-08-30T01:00:52.817Z,66.48
2017-08-30T01:03:20.358Z,66.66
2017-08-30T01:05:47.751Z,66.15
2017-08-30T01:08:15.148Z,65.93
2017-08-30T01:10:42.591Z,66.08
2017-08-30T01:13:09.982Z,66.59
2017-08-30T01:15:37.374Z,66.57
2017-08-30T01:18:04.879Z,66.49
2017-08-30T01:20:32.275Z,66.96
2017-08-30T01:22:59.667Z,66.92
2017-08-30T01:25:27.212Z,66.98
2017-08-30T01:27:54.607Z,66.56
2017-08-30T01:30:21.998Z,66.77
2017-08-30T01:32:49.554Z,66.95
2017-08-30T01:35:16.951Z,67.48
2017-08-30T01:37:44.342Z,67.68
2017-08-30T01:40:11.886Z,67.03
2017-08-30T01:42:39.283Z,67.67
2017-08-30T01:45:06.674Z,67.36
2017-08-30T01:47:34.227Z,67.22
2017-08-30T01:50:01.623Z,66.82
2017-08-30T01:52:29.019Z,67.06
2017-08-30T01:54:56.432Z,67.34
2017-08-30T01:57:23.823Z,67.59
2017-08-30T01:59:51.218Z,67.45
2017-08-30T02:02:18.767Z,67.82
2017-08-30T02:04:46.163Z,67.91
2017-08-30T02:07:13.554Z,67.08
2017-08-30T02:09:40.971Z,66.98
2017-08-30T02:12:08.362Z,67.26
2017-08-30T02:14:35.755Z,67.14
2017-08-30T02:17:03.299Z,66.74
2017-08-30T02:19:30.691Z,66.85
2017-08-30T02:21:58.087Z,67.00
2017-08-30T02:24:26.011Z,67.11
2017-08-30T02:26:53.406Z,67.19
2017-08-30T02:29:20.806Z,67.07
2017-08-30T02:31:48.514Z,66.76
2017-08-30T02:34:15.916Z,67.02
2017-08-30T02:36:43.318Z,67.37
2017-08-30T02:39:10.867Z,67.58
2017-08-30T02:41:38.259Z,67.38
2017-08-30T02:44:05.654Z,67.72
2017-08-30T02:46:33.063Z,67.85
2017-08-30T02:49:00.459Z,68.20
2017-08-30T02:51:27.854Z,68.57
2017-08-30T02:53:55.399Z,68.86
2017-08-30T02:56:22.790Z,69.08
2017-08-30T02:58:50.182Z,68.78
2017-08-30T03:01:17.607Z,68.71
2017-08-30T03:03:45.006Z,69.21
2017-08-30T03:06:12.398Z,69.53
2017-08-30T03:08:39.807Z,68.78
2017-08-30T03:11:07.197Z,68.44
2017-08-30T03:13:34.603Z,68.96
2017-08-30T03:16:02.002Z,69.13
2017-08-30T03:18:29.394Z,69.79
2017-08-30T03:20:56.782Z,69.49
2017-08-30T03:23:24.331Z,69.73
2017-08-30T03:25:51.723Z,70.08
2017-08-30T03:28:19.138Z,70.16
2017-08-30T03:30:46.689Z,69.75
2017-08-30T03:33:14.083Z,69.76
2017-08-30T03:35:41.476Z,70.08
2017-08-30T03:38:08.894Z,70.15
2017-08-30T03:40:36.283Z,70.10
2017-08-30T03:43:03.674Z,70.27
2017-08-30T03:45:31.082Z,70.62
2017-08-30T03:47:58.474Z,70.81
2017-08-30T03:50:25.863Z,70.95
2017-08-30T03:52:53.267Z,71.02
2017-08-30T03:55:20.667Z,70.61
2017-08-30T03:57:48.064Z,70.67
2017-08-30T04:00:15.511Z,70.67
2017-08-30T04:02:42.903Z,70.62
2017-08-30T04:05:10.299Z,70.79
2017-08-30T04:07:37.802Z,71.06
2017-08-30T04:10:05.198Z,71.07
2017-08-30T04:12:32.590Z,71.20
2017-08-30T04:14:59.990Z,71.03
2017-08-30T04:17:27.382Z,70.86
2017-08-30T04:19:54.773Z,70.10
2017-08-30T04:22:22.472Z,70.57
2017-08-30T04:24:49.870Z,70.73
2017-08-30T04:27:17.264Z,70.23
2017-08-30T04:29:44.762Z,70.02
2017-08-30T04:32:12.162Z,69.81
2017-08-30T04:34:39.556Z,69.55
2017-08-30T04:37:07.273Z,69.71
2017-08-30T04:39:34.662Z,69.48
2017-08-30T04:42:02.062Z,69.44
2017-08-30T04:44:29.846Z,69.31
2017-08-30T04:46:57.239Z,69.65
2017-08-30T04:49:24.634Z,69.49
2017-08-30T04:51:52.429Z,69.95
2017-08-30T04:54:19.822Z,69.73
2017-08-30T04:56:47.223Z,69.24
2017-08-30T04:59:14.770Z,69.17
2017-08-30T05:01:42.467Z,69.28
2017-08-30T05:04:09.862Z,69.12
2017-08-30T05:06:37.411Z,69.06
2017-08-30T05:09:04.823Z,68.88
2017-08-30T05:11:32.218Z,69.12
2017-08-30T05:14:00.156Z,68.92
2017-08-30T05:16:27.547Z,68.49
2017-08-30T05:18:54.940Z,68.27
2017-08-30T05:21:22.497Z,68.64
2017-08-30T05:23:49.882Z,68.35
2017-08-30T05:26:17.275Z,68.69
2017-08-30T05:28:44.686Z,69.04
2017-08-30T05:31:12.078Z,68.24
2017-08-30T05:33:39.466Z,68.08
2017-08-30T05:36:06.879Z,67.95
2017-08-30T05:38:34.275Z,68.04
2017-08-30T05:41:01.668Z,67.74
2017-08-30T05:43:29.231Z,68.27
2017-08-30T05:45:56.629Z,67.51
2017-08-30T05:48:24.015Z,67.66
2017-08-30T05:50:51.562Z,67.75
2017-08-30T05:53:18.951Z,67.04
2017-08-30T05:55:46.342Z,67.76
2017-08-30T05:58:14.079Z,67.84
2017-08-30T06:00:41.470Z,68.17
2017-08-30T06:03:08.862Z,67.79
2017-08-30T06:05:36.407Z,67.01
2017-08-30T06:08:03.803Z,67.14
2017-08-30T06:10:32.155Z,66.80
2017-08-30T06:12:59.649Z,67.16
2017-08-30T06:15:27.046Z,65.86
2017-08-30T06:17:54.443Z,66.34
2017-08-30T06:20:21.843Z,65.43
2017-08-30T06:22:49.245Z,66.43
2017-08-30T06:25:16.630Z,66.55
2017-08-30T06:27:44.499Z,66.15
2017-08-30T06:30:11.891Z,67.31
2017-08-30T06:32:39.283Z,66.71
2017-08-30T06:35:06.847Z,66.92
2017-08-30T06:37:34.239Z,65.35
2017-08-30T06:40:01.630Z,65.18
2017-08-30T06:42:29.038Z,65.16
2017-08-30T06:44:56.434Z,64.21
2017-08-30T06:47:23.826Z,65.97
2017-08-30T06:49:51.238Z,64.47
2017-08-30T06:52:18.631Z,61.96
2017-08-30T06:54:46.028Z,63.22
2017-08-30T06:57:13.779Z,63.61
2017-08-30T06:59:41.166Z,62.07
2017-08-30T07:02:08.563Z,63.07
2017-08-30T07:04:35.975Z,63.73
2017-08-30T07:07:03.368Z,63.00
2017-08-30T07:09:30.757Z,63.51
2017-08-30T07:11:58.510Z,61.99
2017-08-30T07:14:25.906Z,63.97
2017-08-30T07:16:53.291Z,61.63
2017-08-30T07:19:20.730Z,60.80
2017-08-30T07:21:48.126Z,60.81
2017-08-30T07:24:15.514Z,60.60
2017-08-30T07:26:43.275Z,61.58
2017-08-30T07:29:10.666Z,61.85
2017-08-30T07:31:38.063Z,61.92
2017-08-30T07:34:05.503Z,61.59
2017-08-30T07:36:32.894Z,61.35
2017-08-30T07:39:00.287Z,62.98
2017-08-30T07:41:28.014Z,62.72
2017-08-30T07:43:55.411Z,64.48
2017-08-30T07:46:22.806Z,65.17
2017-08-30T07:48:50.312Z,64.72
2017-08-30T07:51:17.695Z,64.41
2017-08-30T07:53:45.087Z,62.64
2017-08-30T07:56:12.754Z,63.57
2017-08-30T07:58:40.158Z,61.59
2017-08-30T08:01:07.552Z,61.70
2017-08-30T08:03:35.104Z,63.84
2017-08-30T08:06:02.490Z,62.11
2017-08-30T08:08:29.892Z,61.56
2017-08-30T08:10:57.297Z,59.83
2017-08-30T08:13:24.689Z,61.82
2017-08-30T08:15:52.083Z,61.47
2017-08-30T08:18:19.586Z,60.83
2017-08-30T08:20:46.994Z,60.56
2017-08-30T08:23:14.384Z,62.75
2017-08-30T08:25:41.798Z,64.82
2017-08-30T08:28:09.190Z,63.39
2017-08-30T08:30:36.587Z,62.55
2017-08-30T08:33:04.003Z,62.34
2017-08-30T08:35:31.397Z,60.23
2017-08-30T08:37:58.798Z,62.50
2017-08-30T08:40:26.583Z,63.16
2017-08-30T08:42:53.975Z,63.12
2017-08-30T08:45:21.365Z,62.23
2017-08-30T08:47:49.163Z,60.46
2017-08-30T08:50:16.550Z,61.20
2017-08-30T08:52:43.958Z,63.67
2017-08-30T08:55:11.518Z,64.16
2017-08-30T08:57:38.903Z,63.78
2017-08-30T09:00:06.294Z,67.51
2017-08-30T09:02:33.844Z,71.29
2017-08-30T09:05:01.234Z,71.51
2017-08-30T09:07:28.648Z,73.54
2017-08-30T09:09:56.274Z,74.36
2017-08-30T09:12:23.670Z,74.83
2017-08-30T09:14:51.063Z,74.34
2017-08-30T09:17:18.483Z,70.88
2017-08-30T09:19:45.883Z,70.79
2017-08-30T09:22:13.286Z,68.41
2017-08-30T09:24:40.834Z,70.13
2017-08-30T09:27:08.224Z,67.62
2017-08-30T09:29:35.614Z,63.55
2017-08-30T09:32:03.162Z,63.48
2017-08-30T09:34:30.559Z,63.03
2017-08-30T09:36:57.954Z,64.67
2017-08-30T09:39:25.559Z,57.70
2017-08-30T09:41:52.955Z,57.80
2017-08-30T09:44:20.347Z,57.42
2017-08-30T09:46:47.785Z,57.66
2017-08-30T09:49:15.166Z,56.35
2017-08-30T09:51:42.562Z,55.89
2017-08-30T09:54:09.972Z,55.49
2017-08-30T09:56:37.363Z,54.50
2017-08-30T09:59:04.760Z,55.86
2017-08-30T10:01:32.306Z,54.96
2017-08-30T10:03:59.710Z,55.95
2017-08-30T10:06:27.103Z,58.20
2017-08-30T10:08:54.539Z,58.79
2017-08-30T10:11:21.931Z,61.19
2017-08-30T10:13:49.322Z,59.61
2017-08-30T10:16:16.727Z,56.24
2017-08-30T10:18:44.127Z,56.06
2017-08-30T10:21:11.538Z,51.27
2017-08-30T10:23:39.087Z,52.13
2017-08-30T10:26:06.479Z,53.72
2017-08-30T10:28:33.867Z,51.61
2017-08-30T10:31:01.419Z,52.00
2017-08-30T10:33:28.818Z,52.32
2017-08-30T10:35:56.210Z,54.93
2017-08-30T10:38:23.628Z,52.51
2017-08-30T10:40:51.019Z,53.19
2017-08-30T10:43:18.420Z,51.28
2017-08-30T10:45:45.855Z,50.04
2017-08-30T10:48:13.246Z,50.02
2017-08-30T10:50:40.647Z,48.99
2017-08-30T10:53:08.056Z,49.58
2017-08-30T10:55:35.451Z,49.10
2017-08-30T10:58:02.854Z,49.75
2017-08-30T11:00:30.634Z,48.51
2017-08-30T11:02:58.038Z,48.77
2017-08-30T11:05:25.434Z,47.17
2017-08-30T11:07:52.979Z,47.70
2017-08-30T11:10:20.371Z,48.85
2017-08-30T11:12:47.763Z,49.27
2017-08-30T11:15:15.422Z,49.02
2017-08-30T11:17:42.818Z,50.52
2017-08-30T11:20:10.211Z,50.93
2017-08-30T11:22:37.656Z,49.89
2017-08-30T11:25:05.040Z,49.88
2017-08-30T11:27:32.430Z,46.78
2017-08-30T11:29:59.829Z,47.88
2017-08-30T11:32:27.227Z,47.49
2017-08-30T11:34:54.622Z,43.99
2017-08-30T11:37:22.174Z,43.72
2017-08-30T11:39:49.574Z,44.28
2017-08-30T11:42:16.962Z,46.18
2017-08-30T11:44:44.871Z,48.80
2017-08-30T11:47:12.259Z,48.00
2017-08-30T11:49:39.650Z,45.66
2017-08-30T11:52:07.190Z,44.65
2017-08-30T11:54:34.598Z,45.38
2017-08-30T11:57:01.992Z,45.20
2017-08-30T11:59:29.535Z,47.86
2017-08-30T12:01:56.932Z,44.57
2017-08-30T12:04:24.374Z,44.19
2017-08-30T12:06:51.770Z,43.40
2017-08-30T12:09:19.162Z,44.78
2017-08-30T12:11:46.554Z,44.30
2017-08-30T12:14:13.954Z,44.60
2017-08-30T12:16:41.354Z,46.77
2017-08-30T12:19:08.742Z,45.65
2017-08-30T12:21:36.255Z,43.75
2017-08-30T12:24:03.634Z,44.41
2017-08-30T12:26:31.035Z,41.72
2017-08-30T12:28:58.546Z,44.57
2017-08-30T12:31:25.940Z,41.56
2017-08-30T12:33:53.322Z,42.34
2017-08-30T12:36:20.889Z,44.33
2017-08-30T12:38:53.882Z,43.37
2017-08-30T12:41:21.378Z,45.02
2017-08-30T12:43:48.780Z,46.58
2017-08-30T12:46:17.716Z,45.69
2017-08-30T12:48:46.128Z,46.39
2017-08-30T12:51:13.523Z,46.49
2017-08-30T12:53:40.948Z,47.92
2017-08-30T12:56:09.239Z,48.31
2017-08-30T12:58:36.635Z,45.76
2017-08-30T13:01:04.031Z,46.28
2017-08-30T13:03:31.534Z,47.45
2017-08-30T13:05:58.948Z,51.23
2017-08-30T13:08:26.351Z,52.75
2017-08-30T13:10:54.070Z,55.02
2017-08-30T13:13:21.473Z,50.12
2017-08-30T13:15:48.936Z,50.25
2017-08-30T13:18:16.492Z,50.24
2017-08-30T13:20:43.888Z,50.71
2017-08-30T13:23:11.283Z,48.50
2017-08-30T13:25:38.686Z,49.91
2017-08-30T13:28:06.109Z,51.62
2017-08-30T13:30:33.554Z,49.47
2017-08-30T13:33:01.013Z,48.89
2017-08-30T13:35:28.400Z,48.42
2017-08-30T13:37:56.512Z,48.26
2017-08-30T13:40:24.078Z,48.78
2017-08-30T13:42:51.512Z,49.90
2017-08-30T13:45:18.875Z,48.96
2017-08-30T13:47:46.315Z,49.09
2017-08-30T13:50:13.728Z,48.62
2017-08-30T13:52:41.128Z,48.92
2017-08-30T13:55:08.732Z,49.05
2017-08-30T13:57:36.127Z,48.97
2017-08-30T14:00:03.532Z,48.73
2017-08-30T14:02:31.290Z,49.38
2017-08-30T14:04:58.678Z,49.76
2017-08-30T14:07:26.074Z,50.17
2017-08-30T14:09:53.628Z,50.72
2017-08-30T14:12:21.883Z,52.88
2017-08-30T14:14:49.280Z,52.44
2017-08-30T14:17:16.895Z,52.57
2017-08-30T14:19:44.330Z,53.72
2017-08-30T14:22:11.718Z,53.30
2017-08-30T14:24:39.267Z,53.10
2017-08-30T14:27:06.660Z,53.24
2017-08-30T14:29:34.056Z,53.86
2017-08-30T14:32:01.572Z,54.08
2017-08-30T14:34:28.976Z,53.54
2017-08-30T14:36:56.393Z,54.16
2017-08-30T14:39:23.807Z,55.50
2017-08-30T14:41:51.216Z,55.70
2017-08-30T14:44:18.607Z,54.79
2017-08-30T14:46:46.043Z,55.53
2017-08-30T14:49:14.035Z,56.36
2017-08-30T14:51:41.441Z,55.22
2017-08-30T14:54:08.998Z,55.23
2017-08-30T14:56:36.405Z,55.71
2017-08-30T14:59:04.647Z,56.46
2017-08-30T15:01:32.071Z,55.60
2017-08-30T15:03:59.475Z,55.63
2017-08-30T15:06:26.889Z,55.26
2017-08-30T15:08:54.564Z,56.00
2017-08-30T15:11:22.000Z,55.08
2017-08-30T15:13:49.415Z,55.55
2017-08-30T15:16:17.061Z,55.92
2017-08-30T15:18:44.458Z,56.05
2017-08-30T15:21:11.851Z,56.24
2017-08-30T15:23:39.402Z,56.60
2017-08-30T15:26:06.791Z,56.81
2017-08-30T15:28:34.210Z,57.00
2017-08-30T15:31:01.748Z,58.14
2017-08-30T15:33:29.139Z,57.22
2017-08-30T15:35:56.534Z,56.74
2017-08-30T15:38:24.083Z,57.94
2017-08-30T15:40:51.521Z,58.60
2017-08-30T15:43:18.906Z,59.31
2017-08-30T15:45:46.311Z,59.66
2017-08-30T15:48:13.719Z,58.84
2017-08-30T15:50:41.111Z,59.25
2017-08-30T15:53:08.843Z,59.66
2017-08-30T15:55:36.234Z,60.08
2017-08-30T15:58:03.635Z,58.49
2017-08-30T16:00:31.295Z,59.59
2017-08-30T16:02:58.690Z,60.08
2017-08-30T16:05:26.087Z,59.03
2017-08-30T16:07:53.593Z,59.55
2017-08-30T16:10:21.007Z,59.04
2017-08-30T16:12:48.402Z,59.40
2017-08-30T16:15:15.903Z,59.89
2017-08-30T16:17:43.294Z,60.01
2017-08-30T16:20:10.690Z,60.76
2017-08-30T16:22:38.234Z,59.68
2017-08-30T16:25:05.630Z,60.81
2017-08-30T16:27:33.022Z,63.12
2017-08-30T16:30:00.571Z,61.43
2017-08-30T16:32:27.964Z,62.19
2017-08-30T16:34:55.354Z,61.30
2017-08-30T16:37:23.153Z,62.05
2017-08-30T16:39:50.556Z,62.86
2017-08-30T16:42:17.947Z,62.89
2017-08-30T16:44:45.447Z,62.93
2017-08-30T16:47:12.839Z,62.46
2017-08-30T16:49:40.233Z,63.71
2017-08-30T16:52:07.731Z,63.99
2017-08-30T16:54:35.123Z,63.58
2017-08-30T16:57:02.517Z,62.73
2017-08-30T16:59:30.478Z,64.86
2017-08-30T17:01:57.883Z,63.28
2017-08-30T17:04:25.274Z,63.56
2017-08-30T17:06:53.070Z,65.66
2017-08-30T17:09:20.472Z,64.72
2017-08-30T17:11:47.862Z,63.61
2017-08-30T17:14:15.640Z,64.94
2017-08-30T17:16:43.030Z,63.50
2017-08-30T17:19:10.422Z,63.70
2017-08-30T17:21:37.833Z,63.33
2017-08-30T17:24:05.237Z,62.67
2017-08-30T17:26:32.621Z,63.56
2017-08-30T17:29:00.066Z,64.53
2017-08-30T17:31:27.481Z,64.14
2017-08-30T17:33:54.858Z,64.41
2017-08-30T17:36:22.284Z,63.77
2017-08-30T17:38:49.671Z,63.96
2017-08-30T17:41:17.070Z,64.01
2017-08-30T17:43:44.762Z,64.30
2017-08-30T17:46:12.165Z,63.89
2017-08-30T17:48:39.566Z,63.89
2017-08-30T17:51:07.110Z,63.89
2017-08-30T17:53:34.507Z,63.79
2017-08-30T17:56:01.900Z,63.53
2017-08-30T17:58:29.446Z,64.15
2017-08-30T18:00:56.841Z,64.08
2017-08-30T18:03:24.334Z,63.96
2017-08-30T18:05:51.883Z,64.31
2017-08-30T18:08:19.283Z,64.42
2017-08-30T18:10:46.682Z,64.66
2017-08-30T18:13:14.103Z,64.31
2017-08-30T18:15:41.514Z,64.81
2017-08-30T18:18:08.923Z,64.91
2017-08-30T18:20:36.410Z,64.78
2017-08-30T18:23:03.799Z,64.72
2017-08-30T18:25:31.194Z,64.70
2017-08-30T18:27:58.746Z,64.53
2017-08-30T18:30:27.050Z,64.37
2017-08-30T18:32:54.446Z,64.78
2017-08-30T18:35:23.054Z,64.83
2017-08-30T18:37:50.447Z,64.65
2017-08-30T18:40:17.841Z,64.56
2017-08-30T18:42:45.239Z,64.91
2017-08-30T18:45:12.627Z,64.89
2017-08-30T18:47:40.018Z,65.03
2017-08-30T18:50:07.443Z,64.72
2017-08-30T18:52:34.854Z,65.03
2017-08-30T18:55:02.266Z,65.08
2017-08-30T18:57:29.675Z,65.13
2017-08-30T18:59:57.066Z,65.01
2017-08-30T19:02:24.458Z,65.21
2017-08-30T19:04:51.875Z,65.25
2017-08-30T19:07:19.267Z,65.22
2017-08-30T19:09:46.656Z,65.55
2017-08-30T19:12:14.069Z,65.89
2017-08-30T19:14:41.462Z,66.12
2017-08-30T19:17:08.852Z,66.33
2017-08-30T19:19:36.475Z,66.07
2017-08-30T19:22:03.868Z,65.59
2017-08-30T19:24:31.264Z,65.59
2017-08-30T19:26:58.822Z,65.80
2017-08-30T19:29:26.230Z,65.36
2017-08-30T19:31:53.615Z,64.84
2017-08-30T19:34:21.055Z,64.81
2017-08-30T19:36:48.542Z,65.26
2017-08-30T19:39:15.934Z,65.26
2017-08-30T19:41:43.383Z,65.24
2017-08-30T19:44:10.770Z,65.21
2017-08-30T19:46:38.164Z,65.16
2017-08-30T19:49:05.772Z,64.80
2017-08-30T19:51:33.167Z,65.22
2017-08-30T19:54:00.564Z,64.21
2017-08-30T19:56:28.062Z,64.59
2017-08-30T19:58:55.463Z,64.80
2017-08-30T20:01:22.859Z,65.21
2017-08-30T20:03:50.619Z,66.00
2017-08-30T20:06:18.011Z,66.78
2017-08-30T20:08:45.403Z,66.88
2017-08-30T20:11:12.818Z,66.68
2017-08-30T20:13:40.213Z,66.89
2017-08-30T20:16:07.601Z,66.59
2017-08-30T20:18:35.102Z,66.09
2017-08-30T20:21:02.494Z,66.38
2017-08-30T20:23:29.890Z,66.64
2017-08-30T20:25:57.444Z,67.26
2017-08-30T20:28:24.826Z,67.53
2017-08-30T20:30:52.218Z,68.04
2017-08-30T20:33:19.786Z,68.59
2017-08-30T20:35:47.178Z,68.90
2017-08-30T20:38:14.572Z,68.93
2017-08-30T20:40:42.123Z,68.70
2017-08-30T20:43:09.515Z,68.99
2017-08-30T20:45:36.909Z,69.05
2017-08-30T20:48:04.740Z,68.88
2017-08-30T20:50:32.131Z,68.73
2017-08-30T20:52:59.519Z,68.91
2017-08-30T20:55:26.959Z,69.26
2017-08-30T20:57:54.355Z,69.15
2017-08-30T21:00:21.776Z,69.63
2017-08-30T21:02:49.200Z,69.83
2017-08-30T21:05:16.595Z,70.03
2017-08-30T21:07:43.982Z,69.88
2017-08-30T21:10:11.659Z,70.60
2017-08-30T21:12:39.052Z,70.37
2017-08-30T21:15:06.439Z,70.71
2017-08-30T21:17:33.991Z,71.03
2017-08-30T21:20:01.383Z,71.13
2017-08-30T21:22:28.775Z,71.35
2017-08-30T21:24:56.322Z,71.69
2017-08-30T21:27:23.716Z,72.57
2017-08-30T21:29:51.106Z,72.95
2017-08-30T21:32:18.974Z,72.63
2017-08-30T21:34:46.366Z,73.77
2017-08-30T21:37:13.762Z,73.68
2017-08-30T21:39:41.317Z,73.57
2017-08-30T21:42:08.691Z,73.59
2017-08-30T21:44:36.083Z,73.51
2017-08-30T21:47:03.642Z,73.49
2017-08-30T21:49:31.027Z,73.82
2017-08-30T21:51:58.418Z,73.91
2017-08-30T21:54:25.818Z,73.91
2017-08-30T21:56:53.211Z,74.03
2017-08-30T21:59:20.612Z,73.92
2017-08-30T22:01:48.019Z,73.22
2017-08-30T22:04:15.420Z,73.48
2017-08-30T22:06:42.812Z,73.37
2017-08-30T22:09:10.315Z,73.29
2017-08-30T22:11:37.708Z,73.37
2017-08-30T22:14:05.146Z,73.87
2017-08-30T22:16:32.559Z,74.08
2017-08-30T22:18:59.951Z,74.20
2017-08-30T22:21:27.344Z,74.29
2017-08-30T22:23:54.758Z,74.42
2017-08-30T22:26:22.151Z,74.46
2017-08-30T22:28:49.544Z,74.91
2017-08-30T22:31:16.954Z,74.76
2017-08-30T22:33:44.350Z,74.30
2017-08-30T22:36:11.744Z,74.50
2017-08-30T22:38:39.513Z,74.44
2017-08-30T22:41:06.908Z,74.20
2017-08-30T22:43:34.298Z,74.51
2017-08-30T22:46:02.492Z,74.44
2017-08-30T22:48:29.884Z,74.90
2017-08-30T22:50:57.307Z,75.95
2017-08-30T22:53:24.855Z,76.16
2017-08-30T22:55:52.247Z,77.64
2017-08-30T22:58:19.650Z,78.53
2017-08-30T23:00:47.160Z,79.07
2017-08-30T23:03:14.555Z,78.89
2017-08-30T23:05:41.952Z,79.33
2017-08-30T23:08:09.497Z,80.27
2017-08-30T23:10:36.896Z,79.95
2017-08-30T23:13:04.283Z,80.75
2017-08-30T23:15:31.723Z,80.94
2017-08-30T23:17:59.126Z,82.00
2017-08-30T23:20:26.518Z,83.19
2017-08-30T23:22:53.922Z,82.71
2017-08-30T23:25:21.332Z,82.78
2017-08-30T23:27:48.726Z,83.53
2017-08-30T23:30:16.160Z,84.24
2017-08-30T23:32:43.561Z,84.56
2017-08-30T23:35:10.944Z,84.83
2017-08-30T23:37:38.451Z,84.86
2017-08-30T23:40:05.841Z,83.92
2017-08-30T23:42:33.230Z,83.80
2017-08-30T23:45:00.778Z,84.14
2017-08-30T23:47:28.170Z,84.69
2017-08-30T23:49:55.558Z,84.63
2017-08-30T23:52:22.998Z,84.93
2017-08-30T23:54:50.395Z,85.45
2017-08-30T23:57:17.787Z,85.62
2017-08-30T23:59:45.606Z,85.66
